Time;durP1;ratioP1;P1;durP2;ratioP2;P2;SDS_P1;SDS_P2;PMS_P1;PMS_P2;Temp;Humidity;BMP_temperature;BMP_pressure;BME280_temperature;BME280_humidity;BME280_pressure;Samples;Min_cycle;Max_cycle;Signal;HPM_P1;HPM_P2
2022/05/14 00:00:42;;;;;;;273.90;84.18;;;;;;;;;;5075168;28;20256;-72
2022/05/14 00:03:12;;;;;;;212.15;64.93;;;;;;;;;;5075894;28;20474;-72
2022/05/14 00:05:39;;;;;;;280.90;83.15;;;;;;;;;;5075920;28;20249;-71
2022/05/14 00:08:08;;;;;;;262.30;79.63;;;;;;;;;;5075948;28;20553;-71
2022/05/14 00:13:03;;;;;;;265.52;79.38;;;;;;;;;;5076075;28;20213;-71
2022/05/14 00:13:27;;;;;;;272.20;80.60;;;;;;;;;;5075715;28;20301;-70
2022/05/14 00:15:55;;;;;;;266.40;81.22;;;;;;;;;;5075156;28;20401;-70
2022/05/14 00:18:23;;;;;;;275.90;79.55;;;;;;;;;;5075410;28;20220;-71
2022/05/14 00:20:51;;;;;;;223.07;66.38;;;;;;;;;;5075855;28;20216;-72
2022/05/14 00:23:20;;;;;;;275.63;79.70;;;;;;;;;;5076005;28;20234;-72
2022/05/14 00:25:49;;;;;;;204.52;63.92;;;;;;;;;;5075533;28;20298;-71
2022/05/14 00:28:19;;;;;;;271.08;80.47;;;;;;;;;;5075820;28;20216;-72
2022/05/14 00:30:46;;;;;;;284.40;86.00;;;;;;;;;;5074956;28;20554;-71
2022/05/14 00:33:14;;;;;;;270.92;81.30;;;;;;;;;;5074837;28;20217;-71
2022/05/14 00:35:42;;;;;;;200.93;64.80;;;;;;;;;;5078174;28;20297;-72
2022/05/14 00:38:10;;;;;;;280.83;88.80;;;;;;;;;;5079622;28;20216;-71
2022/05/14 00:40:57;;;;;;;273.67;84.90;;;;;;;;;;5079234;28;20222;-71
2022/05/14 00:43:26;;;;;;;266.13;79.45;;;;;;;;;;5079630;28;20217;-71
2022/05/14 00:45:55;;;;;;;274.63;86.15;;;;;;;;;;5079910;28;20274;-72
2022/05/14 00:48:27;;;;;;;268.00;81.53;;;;;;;;;;5079181;28;20554;-71
2022/05/14 00:50:57;;;;;;;264.67;81.85;;;;;;;;;;5078380;28;20218;-71
2022/05/14 00:53:26;;;;;;;265.90;80.85;;;;;;;;;;5079319;28;20295;-72
2022/05/14 00:55:55;;;;;;;196.00;60.90;;;;;;;;;;5079202;28;20216;-71
2022/05/14 00:58:25;;;;;;;281.88;85.65;;;;;;;;;;5077910;28;20219;-71
2022/05/14 01:00:54;;;;;;;198.82;61.45;;;;;;;;;;5079119;28;20262;-72
2022/05/14 01:03:23;;;;;;;267.63;77.90;;;;;;;;;;5084025;28;20226;-72
2022/05/14 01:05:51;;;;;;;276.20;79.47;;;;;;;;;;5099872;28;20218;-72
2022/05/14 01:08:19;;;;;;;273.13;79.95;;;;;;;;;;5099589;28;20321;-71
2022/05/14 01:10:47;;;;;;;266.02;77.35;;;;;;;;;;5098539;28;20220;-72
2022/05/14 01:13:15;;;;;;;273.35;80.22;;;;;;;;;;5098091;28;20232;-72
2022/05/14 01:15:48;;;;;;;198.60;63.35;;;;;;;;;;5098939;28;20223;-71
2022/05/14 01:18:19;;;;;;;277.05;83.47;;;;;;;;;;5097989;28;20227;-71
2022/05/14 01:20:51;;;;;;;273.35;84.13;;;;;;;;;;5099268;28;20241;-71
2022/05/14 01:23:28;;;;;;;281.77;80.45;;;;;;;;;;5099188;28;20237;-71
2022/05/14 01:28:48;;;;;;;278.17;84.88;;;;;;;;;;5098534;28;20213;-72
2022/05/14 01:31:16;;;;;;;262.17;78.75;;;;;;;;;;5098727;28;20208;-71
2022/05/14 01:33:43;;;;;;;206.85;63.47;;;;;;;;;;5098728;28;20628;-71
2022/05/14 01:36:11;;;;;;;200.82;64.90;;;;;;;;;;5098027;28;20228;-71
2022/05/14 01:38:40;;;;;;;277.88;81.25;;;;;;;;;;5098518;28;20216;-71
2022/05/14 01:41:10;;;;;;;209.23;68.00;;;;;;;;;;5098430;28;20302;-71
2022/05/14 01:43:38;;;;;;;269.15;83.55;;;;;;;;;;5099298;28;20216;-71
2022/05/14 01:46:07;;;;;;;281.48;88.38;;;;;;;;;;5098918;28;20267;-71
2022/05/14 01:48:38;;;;;;;254.80;83.53;;;;;;;;;;5100423;28;20538;-71
2022/05/14 01:51:06;;;;;;;203.15;66.85;;;;;;;;;;5098836;28;20306;-71
2022/05/14 01:53:40;;;;;;;271.25;84.97;;;;;;;;;;5097967;28;20689;-71
2022/05/14 01:56:08;;;;;;;257.83;84.72;;;;;;;;;;5098044;28;20205;-71
2022/05/14 01:58:40;;;;;;;270.42;85.65;;;;;;;;;;5098682;28;20215;-71
2022/05/14 02:01:08;;;;;;;276.90;86.30;;;;;;;;;;5097309;28;20205;-71
2022/05/14 02:03:36;;;;;;;281.50;89.68;;;;;;;;;;5098023;28;20207;-70
2022/05/14 02:06:04;;;;;;;277.85;83.38;;;;;;;;;;5078147;28;20211;-72
2022/05/14 02:08:32;;;;;;;272.08;80.95;;;;;;;;;;5077897;28;20262;-72
2022/05/14 02:11:00;;;;;;;280.90;84.95;;;;;;;;;;5077964;28;20224;-72
2022/05/14 02:13:28;;;;;;;276.48;82.50;;;;;;;;;;5077672;28;20232;-72
2022/05/14 02:15:58;;;;;;;278.83;83.15;;;;;;;;;;5077488;28;20349;-71
2022/05/14 02:18:26;;;;;;;212.73;78.82;;;;;;;;;;5077320;28;20220;-71
2022/05/14 02:20:53;;;;;;;284.15;84.35;;;;;;;;;;5077202;28;20217;-71
2022/05/14 02:23:21;;;;;;;279.10;82.55;;;;;;;;;;5077784;28;20213;-71
2022/05/14 02:25:49;;;;;;;265.25;81.13;;;;;;;;;;5077976;28;20221;-71
2022/05/14 02:28:17;;;;;;;271.08;80.93;;;;;;;;;;5077861;28;20223;-72
2022/05/14 02:30:48;;;;;;;276.52;83.13;;;;;;;;;;5077516;28;20346;-71
2022/05/14 02:33:17;;;;;;;273.25;81.32;;;;;;;;;;5077167;28;20229;-72
2022/05/14 02:35:45;;;;;;;273.38;83.20;;;;;;;;;;5076462;28;20213;-69
2022/05/14 02:38:15;;;;;;;280.55;84.70;;;;;;;;;;5077535;28;20198;-70
2022/05/14 02:40:46;;;;;;;297.13;82.13;;;;;;;;;;5076953;28;20235;-72
2022/05/14 02:43:14;;;;;;;269.80;82.05;;;;;;;;;;5077315;28;20571;-71
2022/05/14 02:45:41;;;;;;;266.33;78.70;;;;;;;;;;5077670;28;20242;-72
2022/05/14 02:48:10;;;;;;;197.93;63.28;;;;;;;;;;5077797;28;20676;-72
2022/05/14 02:50:40;;;;;;;200.18;63.10;;;;;;;;;;5077118;28;20201;-71
2022/05/14 02:53:07;;;;;;;281.38;95.40;;;;;;;;;;5076996;28;20225;-71
2022/05/14 02:55:35;;;;;;;272.50;81.63;;;;;;;;;;5076450;28;20282;-72
2022/05/14 02:58:06;;;;;;;204.77;66.80;;;;;;;;;;5076428;28;20220;-71
2022/05/14 03:00:34;;;;;;;200.15;65.45;;;;;;;;;;5076612;28;20214;-72
2022/05/14 03:03:01;;;;;;;271.83;85.10;;;;;;;;;;5076344;28;20644;-71
2022/05/14 03:05:29;;;;;;;267.95;82.43;;;;;;;;;;5076374;28;20458;-72
2022/05/14 03:07:58;;;;;;;211.32;67.10;;;;;;;;;;5076950;28;20214;-71
2022/05/14 03:10:26;;;;;;;253.48;79.93;;;;;;;;;;5076517;28;20203;-71
2022/05/14 03:12:54;;;;;;;265.52;82.75;;;;;;;;;;5076351;28;20257;-72
2022/05/14 03:15:21;;;;;;;264.80;81.88;;;;;;;;;;5076134;28;20235;-70
2022/05/14 03:17:49;;;;;;;198.40;65.20;;;;;;;;;;5075873;28;20214;-71
2022/05/14 03:20:17;;;;;;;269.95;83.82;;;;;;;;;;5076179;28;20211;-72
2022/05/14 03:22:45;;;;;;;268.20;82.70;;;;;;;;;;5076146;28;20477;-71
2022/05/14 03:25:14;;;;;;;265.27;80.63;;;;;;;;;;5076506;28;20203;-72
2022/05/14 03:27:45;;;;;;;266.50;81.85;;;;;;;;;;5076120;28;20217;-71
2022/05/14 03:30:13;;;;;;;202.93;65.07;;;;;;;;;;5075897;28;20216;-72
2022/05/14 03:32:42;;;;;;;268.80;80.00;;;;;;;;;;5076401;28;20240;-71
2022/05/14 03:35:09;;;;;;;271.35;81.50;;;;;;;;;;5075659;28;20249;-72
2022/05/14 03:37:37;;;;;;;300.85;80.60;;;;;;;;;;5076046;28;20774;-72
2022/05/14 03:40:05;;;;;;;203.93;61.67;;;;;;;;;;5076406;28;20208;-71
2022/05/14 03:42:34;;;;;;;278.58;83.35;;;;;;;;;;5076331;28;20254;-71
2022/05/14 03:45:02;;;;;;;207.32;61.10;;;;;;;;;;5076557;28;20309;-70
2022/05/14 03:47:30;;;;;;;271.80;84.13;;;;;;;;;;5078555;28;20204;-71
2022/05/14 03:49:59;;;;;;;277.83;86.40;;;;;;;;;;5076262;28;20218;-72
2022/05/14 03:52:27;;;;;;;276.38;82.15;;;;;;;;;;5076345;28;20263;-71
2022/05/14 03:54:54;;;;;;;212.93;60.67;;;;;;;;;;5075339;28;20235;-72
2022/05/14 03:57:22;;;;;;;203.32;59.50;;;;;;;;;;5075969;28;20655;-71
2022/05/14 03:59:51;;;;;;;282.35;79.10;;;;;;;;;;5075522;28;20623;-71
2022/05/14 04:02:20;;;;;;;220.63;60.53;;;;;;;;;;5075796;28;20600;-71
2022/05/14 04:04:51;;;;;;;198.20;56.20;;;;;;;;;;5075689;28;20547;-71
2022/05/14 04:07:19;;;;;;;262.52;70.22;;;;;;;;;;5075338;28;20217;-72
2022/05/14 04:09:47;;;;;;;197.60;56.63;;;;;;;;;;5074913;28;20262;-71
2022/05/14 04:12:15;;;;;;;280.27;81.90;;;;;;;;;;5075856;28;20227;-72
2022/05/14 04:14:42;;;;;;;229.60;69.03;;;;;;;;;;5075536;28;20250;-72
2022/05/14 04:17:12;;;;;;;391.23;205.73;;;;;;;;;;5075690;28;20485;-71
2022/05/14 04:19:40;;;;;;;373.20;98.47;;;;;;;;;;5075183;28;20215;-71
2022/05/14 04:22:10;;;;;;;350.50;139.85;;;;;;;;;;5076102;28;20238;-71
2022/05/14 04:24:37;;;;;;;351.35;134.75;;;;;;;;;;5075231;28;20240;-72
2022/05/14 04:27:05;;;;;;;384.20;159.10;;;;;;;;;;5075480;28;20202;-71
2022/05/14 04:32:19;;;;;;;411.58;192.73;;;;;;;;;;5073240;28;20206;-72
2022/05/14 04:34:46;;;;;;;391.48;122.93;;;;;;;;;;5075628;28;20273;-72
2022/05/14 04:37:16;;;;;;;355.85;90.35;;;;;;;;;;5075126;28;20210;-72
2022/05/14 04:39:43;;;;;;;364.77;89.90;;;;;;;;;;5075375;28;20215;-71
2022/05/14 04:42:14;;;;;;;342.95;87.40;;;;;;;;;;5075846;28;20203;-71
2022/05/14 04:44:45;;;;;;;360.58;95.97;;;;;;;;;;5075611;28;20191;-71
2022/05/14 04:47:14;;;;;;;332.95;94.45;;;;;;;;;;5075029;28;20202;-71
2022/05/14 04:49:45;;;;;;;276.15;86.68;;;;;;;;;;5074988;28;20408;-70
2022/05/14 04:52:12;;;;;;;263.30;82.30;;;;;;;;;;5083370;28;20526;-72
2022/05/14 04:54:40;;;;;;;264.33;82.38;;;;;;;;;;5095707;28;20247;-71
2022/05/14 04:57:08;;;;;;;282.52;80.60;;;;;;;;;;5096062;28;20205;-71
2022/05/14 04:59:36;;;;;;;199.00;63.75;;;;;;;;;;5094826;28;20685;-71
2022/05/14 05:04:51;;;;;;;195.65;58.08;;;;;;;;;;5094277;28;20289;-72
2022/05/14 05:07:22;;;;;;;223.40;67.70;;;;;;;;;;5095066;28;20299;-71
2022/05/14 05:09:49;;;;;;;267.58;84.53;;;;;;;;;;5094970;28;20195;-71
2022/05/14 05:12:17;;;;;;;266.63;86.15;;;;;;;;;;5095035;28;20238;-71
2022/05/14 05:14:45;;;;;;;267.33;84.45;;;;;;;;;;5094468;28;20380;-71
2022/05/14 05:17:12;;;;;;;276.42;85.80;;;;;;;;;;5094930;28;20248;-72
2022/05/14 05:19:40;;;;;;;177.38;55.50;;;;;;;;;;5095207;28;20849;-73
2022/05/14 05:22:09;;;;;;;204.57;62.72;;;;;;;;;;5097034;28;20224;-72
2022/05/14 05:24:37;;;;;;;272.70;84.35;;;;;;;;;;5099490;28;20223;-72
2022/05/14 05:27:05;;;;;;;273.48;87.32;;;;;;;;;;5098728;28;20214;-72
2022/05/14 05:29:33;;;;;;;205.30;67.88;;;;;;;;;;5098676;28;20212;-72
2022/05/14 05:32:01;;;;;;;211.38;67.55;;;;;;;;;;5097616;28;20222;-72
2022/05/14 05:34:28;;;;;;;196.18;64.88;;;;;;;;;;5096496;28;20237;-72
2022/05/14 05:36:56;;;;;;;201.27;68.45;;;;;;;;;;5097360;28;20208;-72
2022/05/14 05:39:25;;;;;;;272.15;86.35;;;;;;;;;;5097025;28;20311;-71
2022/05/14 05:41:54;;;;;;;304.58;97.68;;;;;;;;;;5096806;28;20280;-71
2022/05/14 05:44:21;;;;;;;330.08;94.57;;;;;;;;;;5097292;28;20209;-72
2022/05/14 05:46:52;;;;;;;308.27;93.28;;;;;;;;;;5097418;28;20205;-72
2022/05/14 05:49:20;;;;;;;294.08;91.63;;;;;;;;;;5097024;28;20280;-72
2022/05/14 05:51:48;;;;;;;301.25;91.43;;;;;;;;;;5096664;28;20455;-73
2022/05/14 05:57:04;;;;;;;287.30;88.65;;;;;;;;;;5096950;28;20288;-72
2022/05/14 05:59:32;;;;;;;307.77;89.45;;;;;;;;;;5096715;28;20204;-73
2022/05/14 06:02:00;;;;;;;276.20;89.68;;;;;;;;;;5096902;28;20211;-71
2022/05/14 06:04:28;;;;;;;289.63;89.47;;;;;;;;;;5096826;28;20227;-72
2022/05/14 06:06:56;;;;;;;277.30;88.10;;;;;;;;;;5097453;28;20211;-72
2022/05/14 06:09:26;;;;;;;287.65;91.18;;;;;;;;;;5097502;28;20202;-71
2022/05/14 06:11:54;;;;;;;288.70;80.35;;;;;;;;;;5097657;28;20216;-73
2022/05/14 06:14:25;;;;;;;234.05;66.68;;;;;;;;;;5096808;28;20280;-73
2022/05/14 06:16:54;;;;;;;294.98;96.15;;;;;;;;;;5096198;28;20294;-71
2022/05/14 06:19:22;;;;;;;284.48;90.72;;;;;;;;;;5093153;28;20221;-73
2022/05/14 06:21:50;;;;;;;276.73;87.13;;;;;;;;;;5095896;28;20223;-72
2022/05/14 06:24:18;;;;;;;274.35;85.95;;;;;;;;;;5096640;28;20204;-72
2022/05/14 06:26:49;;;;;;;293.00;92.63;;;;;;;;;;5095511;28;20224;-73
2022/05/14 06:29:16;;;;;;;292.42;87.50;;;;;;;;;;5096011;28;20227;-73
2022/05/14 06:31:45;;;;;;;282.33;87.35;;;;;;;;;;5094715;28;20210;-72
2022/05/14 06:34:13;;;;;;;272.63;88.05;;;;;;;;;;5075853;28;20227;-72
2022/05/14 06:36:40;;;;;;;277.55;85.05;;;;;;;;;;5075648;28;20224;-72
2022/05/14 06:39:09;;;;;;;295.63;94.93;;;;;;;;;;5074739;28;20213;-72
2022/05/14 06:41:38;;;;;;;292.10;89.65;;;;;;;;;;5076203;28;20312;-72
2022/05/14 06:44:07;;;;;;;288.95;88.38;;;;;;;;;;5076637;28;20228;-73
2022/05/14 06:46:37;;;;;;;291.52;91.28;;;;;;;;;;5076818;28;20219;-72
2022/05/14 06:49:06;;;;;;;283.05;87.85;;;;;;;;;;5081778;28;20224;-73
2022/05/14 06:51:34;;;;;;;306.85;89.95;;;;;;;;;;5092149;28;20200;-72
2022/05/14 06:54:03;;;;;;;290.08;92.10;;;;;;;;;;5077007;28;20247;-72
2022/05/14 06:56:32;;;;;;;276.38;87.45;;;;;;;;;;5077333;28;20225;-72
2022/05/14 06:59:00;;;;;;;301.73;92.72;;;;;;;;;;5076253;28;20732;-72
2022/05/14 07:01:28;;;;;;;311.27;93.07;;;;;;;;;;5076320;28;20217;-71
2022/05/14 07:06:56;;;;;;;230.40;68.85;;;;;;;;;;5014022;28;20526;-72
2022/05/14 07:09:28;;;;;;;310.08;92.72;;;;;;;;;;5073493;28;20217;-72
2022/05/14 07:12:00;;;;;;;233.27;70.75;;;;;;;;;;5091900;28;20663;-73
2022/05/14 07:14:28;;;;;;;299.20;89.78;;;;;;;;;;5096967;28;20235;-72
2022/05/14 07:16:56;;;;;;;309.75;91.53;;;;;;;;;;5096367;28;20298;-72
2022/05/14 07:19:25;;;;;;;301.90;87.35;;;;;;;;;;5088478;28;20555;-71
2022/05/14 07:21:53;;;;;;;310.80;88.75;;;;;;;;;;5076884;28;20225;-72
2022/05/14 07:24:23;;;;;;;303.20;86.93;;;;;;;;;;5091373;28;20222;-72
2022/05/14 07:26:52;;;;;;;311.77;87.55;;;;;;;;;;5086428;28;20228;-72
2022/05/14 07:29:20;;;;;;;223.45;65.43;;;;;;;;;;5090874;28;20224;-72
2022/05/14 07:31:51;;;;;;;311.02;89.65;;;;;;;;;;5095061;28;20411;-71
2022/05/14 07:34:22;;;;;;;308.88;84.97;;;;;;;;;;5077686;28;20240;-71
2022/05/14 07:36:54;;;;;;;312.08;88.18;;;;;;;;;;5080019;28;20215;-74
2022/05/14 07:39:25;;;;;;;316.23;90.30;;;;;;;;;;5095435;28;20219;-70
2022/05/14 07:41:55;;;;;;;311.70;87.07;;;;;;;;;;5093269;28;20231;-69
2022/05/14 07:44:27;;;;;;;315.80;86.75;;;;;;;;;;5093756;28;20580;-71
2022/05/14 07:47:00;;;;;;;308.67;90.82;;;;;;;;;;5094287;28;20273;-72
2022/05/14 07:49:29;;;;;;;318.17;92.85;;;;;;;;;;5075256;28;20219;-72
2022/05/14 07:51:57;;;;;;;307.48;87.25;;;;;;;;;;5081821;28;20296;-72
2022/05/14 07:54:28;;;;;;;316.80;93.22;;;;;;;;;;5095084;28;20262;-71
2022/05/14 07:56:56;;;;;;;303.30;94.75;;;;;;;;;;5092943;28;20598;-70
2022/05/14 07:59:29;;;;;;;310.88;98.45;;;;;;;;;;5083615;28;20200;-73
2022/05/14 08:01:58;;;;;;;233.77;74.88;;;;;;;;;;5094450;28;20210;-71
2022/05/14 08:04:26;;;;;;;249.60;80.97;;;;;;;;;;5093864;28;20208;-75
2022/05/14 08:06:53;;;;;;;309.38;95.13;;;;;;;;;;5094062;28;20221;-72
2022/05/14 08:09:21;;;;;;;229.15;72.95;;;;;;;;;;5094686;28;20247;-71
2022/05/14 08:11:53;;;;;;;318.15;96.00;;;;;;;;;;5087545;28;20214;-71
2022/05/14 08:14:22;;;;;;;306.10;90.82;;;;;;;;;;5095148;28;20235;-72
2022/05/14 08:16:56;;;;;;;293.60;91.05;;;;;;;;;;5093078;28;20209;-72
2022/05/14 08:19:24;;;;;;;287.17;89.55;;;;;;;;;;5094494;28;20221;-72
2022/05/14 08:24:41;;;;;;;313.30;92.03;;;;;;;;;;5093388;28;20357;-72
2022/05/14 08:27:13;;;;;;;312.92;95.38;;;;;;;;;;5095323;28;20226;-72
2022/05/14 08:29:41;;;;;;;329.48;94.07;;;;;;;;;;5094260;28;20619;-72
2022/05/14 08:32:10;;;;;;;308.38;90.90;;;;;;;;;;5093340;28;20251;-72
2022/05/14 08:34:37;;;;;;;311.02;87.85;;;;;;;;;;5092768;28;20544;-73
2022/05/14 08:37:11;;;;;;;241.13;73.38;;;;;;;;;;5080812;28;20224;-71
2022/05/14 08:39:40;;;;;;;338.13;96.38;;;;;;;;;;5094815;28;20223;-72
2022/05/14 08:42:14;;;;;;;324.40;94.95;;;;;;;;;;5094345;28;20635;-70
2022/05/14 08:44:44;;;;;;;320.17;93.20;;;;;;;;;;5094398;28;20219;-72
2022/05/14 08:47:24;;;;;;;311.48;90.45;;;;;;;;;;5082700;28;20231;-71
2022/05/14 08:49:53;;;;;;;314.15;94.25;;;;;;;;;;5080237;28;20616;-71
2022/05/14 08:52:23;;;;;;;339.13;101.55;;;;;;;;;;5092747;28;20277;-72
2022/05/14 08:54:55;;;;;;;330.25;101.40;;;;;;;;;;5075382;28;20224;-71
2022/05/14 08:57:41;;;;;;;305.83;92.93;;;;;;;;;;5080374;28;20509;-71
2022/05/14 09:00:11;;;;;;;236.50;78.90;;;;;;;;;;5078036;28;20214;-70
2022/05/14 09:02:43;;;;;;;326.08;97.90;;;;;;;;;;5088125;28;20221;-72
2022/05/14 09:05:17;;;;;;;261.17;75.65;;;;;;;;;;5091580;28;20212;-72
2022/05/14 09:08:01;;;;;;;319.55;93.82;;;;;;;;;;5084736;28;20213;-72
2022/05/14 09:10:31;;;;;;;247.57;74.65;;;;;;;;;;5093508;28;20212;-72
2022/05/14 09:13:05;;;;;;;328.13;92.20;;;;;;;;;;5084855;28;20333;-73
2022/05/14 09:15:36;;;;;;;340.95;106.18;;;;;;;;;;5090709;28;20870;-71
2022/05/14 09:18:06;;;;;;;336.92;97.60;;;;;;;;;;5077942;28;20221;-72
2022/05/14 09:20:51;;;;;;;334.15;102.22;;;;;;;;;;5084691;28;20200;-72
2022/05/14 09:23:26;;;;;;;338.58;99.60;;;;;;;;;;5076873;28;20255;-70
2022/05/14 09:25:54;;;;;;;339.92;100.75;;;;;;;;;;5081024;28;20210;-72
2022/05/14 09:28:29;;;;;;;334.83;100.70;;;;;;;;;;5090511;28;20217;-71
2022/05/14 09:31:09;;;;;;;328.80;100.22;;;;;;;;;;5077411;28;20316;-72
2022/05/14 09:33:41;;;;;;;247.18;74.40;;;;;;;;;;5076817;28;20215;-71
2022/05/14 09:36:19;;;;;;;262.88;82.93;;;;;;;;;;5077554;28;20767;-72
2022/05/14 09:38:51;;;;;;;321.73;96.05;;;;;;;;;;5094700;28;20205;-73
2022/05/14 09:41:24;;;;;;;343.30;121.22;;;;;;;;;;5097766;28;20297;-72
2022/05/14 09:43:59;;;;;;;329.85;91.53;;;;;;;;;;5084331;28;20218;-71
2022/05/14 09:46:32;;;;;;;338.75;97.70;;;;;;;;;;5076743;28;20279;-72
2022/05/14 09:49:11;;;;;;;269.23;80.43;;;;;;;;;;5078633;28;20205;-72
2022/05/14 09:51:55;;;;;;;336.90;96.57;;;;;;;;;;5077432;28;20221;-73
2022/05/14 09:54:38;;;;;;;329.63;94.45;;;;;;;;;;5087669;28;20237;-72
2022/05/14 09:57:21;;;;;;;267.45;79.68;;;;;;;;;;5079586;28;20208;-72
2022/05/14 09:59:59;;;;;;;251.60;75.72;;;;;;;;;;5071806;28;20514;-72
2022/05/14 10:02:40;;;;;;;344.65;104.13;;;;;;;;;;5096758;28;20314;-72
2022/05/14 10:05:16;;;;;;;247.90;73.78;;;;;;;;;;5091456;28;20208;-72
2022/05/14 10:07:49;;;;;;;335.63;95.85;;;;;;;;;;5075232;28;20487;-72
2022/05/14 10:10:35;;;;;;;253.30;75.95;;;;;;;;;;5084249;28;20213;-71
2022/05/14 10:13:06;;;;;;;330.02;92.82;;;;;;;;;;5082138;28;20211;-72
2022/05/14 10:15:43;;;;;;;248.00;72.07;;;;;;;;;;5080161;28;20247;-73
2022/05/14 10:18:16;;;;;;;330.25;94.63;;;;;;;;;;5088460;28;20357;-70
2022/05/14 10:20:54;;;;;;;337.35;97.00;;;;;;;;;;5078267;28;20262;-72
2022/05/14 10:29:18;;;;;;;337.88;95.20;;;;;;;;;;5079234;28;20268;-73
2022/05/14 10:32:04;;;;;;;327.08;93.05;;;;;;;;;;5087108;28;20298;-71
2022/05/14 10:34:43;;;;;;;261.77;78.78;;;;;;;;;;5080029;28;20230;-71
2022/05/14 10:37:38;;;;;;;329.83;100.75;;;;;;;;;;5077303;28;20253;-73
2022/05/14 10:40:22;;;;;;;260.90;76.72;;;;;;;;;;5064213;28;20232;-71
2022/05/14 10:43:01;;;;;;;326.88;96.15;;;;;;;;;;5089138;28;20223;-73
2022/05/14 10:45:39;;;;;;;343.88;101.18;;;;;;;;;;5085504;28;20387;-74
2022/05/14 10:48:17;;;;;;;334.75;101.95;;;;;;;;;;5083947;28;20210;-71
2022/05/14 10:50:50;;;;;;;339.25;103.40;;;;;;;;;;5093142;28;20578;-72
2022/05/14 10:56:21;;;;;;;346.98;103.63;;;;;;;;;;5090594;28;20238;-71
2022/05/14 10:59:00;;;;;;;329.50;94.47;;;;;;;;;;5093849;28;20300;-74
2022/05/14 11:01:34;;;;;;;330.70;93.00;;;;;;;;;;5079253;28;20217;-73
2022/05/14 11:04:12;;;;;;;274.05;81.78;;;;;;;;;;5079877;28;20811;-73
2022/05/14 11:06:55;;;;;;;333.35;96.40;;;;;;;;;;5082014;28;20221;-72
2022/05/14 11:09:42;;;;;;;251.93;78.60;;;;;;;;;;5087359;28;20213;-72
2022/05/14 11:12:29;;;;;;;335.20;96.53;;;;;;;;;;5087999;28;20245;-73
2022/05/14 11:14:57;;;;;;;247.38;74.03;;;;;;;;;;5095761;28;20241;-71
2022/05/14 11:17:35;;;;;;;346.20;108.45;;;;;;;;;;5086395;28;20500;-73
2022/05/14 11:20:11;;;;;;;342.58;106.10;;;;;;;;;;5092414;28;20252;-72
2022/05/14 11:22:44;;;;;;;345.20;110.57;;;;;;;;;;5095235;28;20208;-70
2022/05/14 11:25:13;;;;;;;328.20;95.15;;;;;;;;;;5080813;28;20300;-71
2022/05/14 11:27:55;;;;;;;347.88;104.05;;;;;;;;;;5076430;28;20216;-72
2022/05/14 11:30:38;;;;;;;340.55;101.18;;;;;;;;;;5084088;28;20303;-74
2022/05/14 11:33:26;;;;;;;340.88;100.65;;;;;;;;;;5086634;28;20270;-70
2022/05/14 11:36:03;;;;;;;312.65;92.07;;;;;;;;;;5084846;28;20228;-72
2022/05/14 11:38:37;;;;;;;330.55;101.28;;;;;;;;;;5093425;28;20209;-71
2022/05/14 11:41:08;;;;;;;345.70;106.97;;;;;;;;;;5083209;28;20219;-72
2022/05/14 11:43:41;;;;;;;349.17;109.78;;;;;;;;;;5079008;28;20223;-71
2022/05/14 11:46:30;;;;;;;331.20;100.18;;;;;;;;;;5094198;28;20343;-72
2022/05/14 11:49:03;;;;;;;405.13;244.00;;;;;;;;;;5093879;28;20213;-71
2022/05/14 11:51:50;;;;;;;421.45;270.00;;;;;;;;;;5095108;28;20303;-70
2022/05/14 11:54:41;;;;;;;421.25;269.17;;;;;;;;;;5077352;28;20297;-71
2022/05/14 11:57:26;;;;;;;414.77;258.30;;;;;;;;;;5087900;28;20218;-72
2022/05/14 12:00:03;;;;;;;411.00;216.98;;;;;;;;;;5093899;28;20209;-72
2022/05/14 12:02:53;;;;;;;418.30;278.20;;;;;;;;;;5094483;28;20204;-69
2022/05/14 12:05:33;;;;;;;425.08;263.25;;;;;;;;;;5074397;28;20707;-71
2022/05/14 12:08:23;;;;;;;408.02;226.82;;;;;;;;;;5075151;28;20210;-70
2022/05/14 12:10:55;;;;;;;405.65;215.50;;;;;;;;;;5091590;28;20205;-73
2022/05/14 12:13:35;;;;;;;411.63;244.35;;;;;;;;;;5087642;28;20223;-73
2022/05/14 12:16:17;;;;;;;407.90;218.60;;;;;;;;;;5084045;28;20625;-71
2022/05/14 12:18:47;;;;;;;406.25;215.30;;;;;;;;;;5090540;28;20210;-73
2022/05/14 12:21:25;;;;;;;406.00;233.10;;;;;;;;;;5083366;28;20222;-71
2022/05/14 12:23:59;;;;;;;420.70;243.07;;;;;;;;;;5086198;28;20604;-71
2022/05/14 12:26:41;;;;;;;394.95;201.70;;;;;;;;;;5103960;28;20200;-71
2022/05/14 12:29:29;;;;;;;396.80;206.30;;;;;;;;;;5096347;28;20206;-72
2022/05/14 12:34:49;;;;;;;407.33;227.83;;;;;;;;;;5091797;28;20322;-72
2022/05/14 12:37:29;;;;;;;405.42;225.00;;;;;;;;;;5093652;28;20440;-74
2022/05/14 12:40:00;;;;;;;409.88;241.60;;;;;;;;;;5086791;28;20197;-72
2022/05/14 12:42:49;;;;;;;403.70;223.57;;;;;;;;;;5075487;28;20549;-73
2022/05/14 12:45:27;;;;;;;417.45;246.15;;;;;;;;;;5074617;28;20374;-73
2022/05/14 12:48:01;;;;;;;411.23;234.90;;;;;;;;;;5090452;28;20193;-72
2022/05/14 12:50:41;;;;;;;415.05;254.73;;;;;;;;;;5077619;28;20198;-71
2022/05/14 12:53:13;;;;;;;409.55;238.85;;;;;;;;;;5074270;28;20901;-72
2022/05/14 12:55:48;;;;;;;412.60;222.25;;;;;;;;;;5073895;28;20222;-71
2022/05/14 12:58:20;;;;;;;415.45;250.63;;;;;;;;;;5073814;28;20198;-72
2022/05/14 13:01:04;;;;;;;407.30;224.32;;;;;;;;;;5077574;28;20322;-73
2022/05/14 13:03:42;;;;;;;403.60;221.55;;;;;;;;;;5075429;28;20270;-71
2022/05/14 13:09:22;;;;;;;417.13;250.95;;;;;;;;;;5032323;28;20529;-73
2022/05/14 13:14:56;;;;;;;414.45;231.98;;;;;;;;;;5083100;28;20518;-74
2022/05/14 13:17:41;;;;;;;401.65;230.32;;;;;;;;;;5093889;28;20213;-74
2022/05/14 13:20:25;;;;;;;403.52;224.60;;;;;;;;;;5084061;28;20244;-71
2022/05/14 13:23:04;;;;;;;415.25;241.82;;;;;;;;;;5083664;28;20206;-72
2022/05/14 13:25:36;;;;;;;399.15;200.20;;;;;;;;;;5074054;28;20195;-72
2022/05/14 13:28:15;;;;;;;423.37;252.30;;;;;;;;;;5076665;28;20205;-72
2022/05/14 13:30:53;;;;;;;403.70;225.80;;;;;;;;;;5100422;28;20460;-73
2022/05/14 13:33:31;;;;;;;397.17;199.05;;;;;;;;;;5093510;28;20240;-72
2022/05/14 13:42:01;;;;;;;415.85;254.45;;;;;;;;;;5073364;28;20210;-73
2022/05/14 13:44:43;;;;;;;415.55;247.30;;;;;;;;;;5085181;28;20198;-73
2022/05/14 13:47:18;;;;;;;411.65;243.30;;;;;;;;;;5069886;28;20202;-71
2022/05/14 13:49:52;;;;;;;415.90;252.77;;;;;;;;;;5076950;28;20271;-72
2022/05/14 13:52:57;;;;;;;418.03;253.17;;;;;;;;;;5082487;28;20541;-71
2022/05/14 13:55:42;;;;;;;409.15;232.75;;;;;;;;;;5088861;28;20456;-73
2022/05/14 13:58:26;;;;;;;416.07;257.43;;;;;;;;;;5076456;28;20202;-71
2022/05/14 14:01:14;;;;;;;;;;;;;;;;;;;;;
2022/05/14 14:03:53;;;;;;;418.73;261.07;;;;;;;;;;5079040;28;20212;-72
2022/05/14 14:06:32;;;;;;;415.30;242.63;;;;;;;;;;5083990;28;20541;-72
2022/05/14 14:09:05;;;;;;;407.60;232.95;;;;;;;;;;5076689;28;20460;-73
2022/05/14 14:11:44;;;;;;;412.73;250.53;;;;;;;;;;5077807;28;20198;-71
2022/05/14 14:14:32;;;;;;;407.40;242.85;;;;;;;;;;5080690;28;21398;-72
2022/05/14 14:17:14;;;;;;;409.97;239.87;;;;;;;;;;5076790;28;20226;-73
2022/05/14 14:19:42;;;;;;;406.43;206.00;;;;;;;;;;5083956;28;20448;-71
2022/05/14 14:22:23;;;;;;;408.83;221.37;;;;;;;;;;5084143;28;20469;-72
2022/05/14 14:24:54;;;;;;;412.70;249.17;;;;;;;;;;5086848;28;20536;-71
2022/05/14 14:27:22;;;;;;;403.83;208.17;;;;;;;;;;5086005;28;20452;-70
2022/05/14 14:29:57;;;;;;;412.83;256.63;;;;;;;;;;5090242;28;20452;-72
2022/05/14 14:32:37;;;;;;;400.67;204.67;;;;;;;;;;5082217;28;20483;-71
2022/05/14 14:35:40;;;;;;;405.20;215.97;;;;;;;;;;5081493;28;20466;-72
2022/05/14 14:38:30;;;;;;;;;;;;;;;;;;;;;
2022/05/14 14:44:00;;;;;;;413.37;229.67;;;;;;;;;;5088409;28;20467;-71
2022/05/14 14:46:29;;;;;;;421.20;264.20;;;;;;;;;;5077209;28;20436;-72
2022/05/14 14:49:08;;;;;;;422.00;273.77;;;;;;;;;;5078296;28;20191;-73
2022/05/14 14:51:39;;;;;;;424.53;275.90;;;;;;;;;;5092205;28;20450;-72
2022/05/14 14:54:25;;;;;;;395.50;200.05;;;;;;;;;;5084333;28;20514;-73
2022/05/14 14:56:53;;;;;;;421.65;253.32;;;;;;;;;;5085166;28;20217;-71
2022/05/14 14:59:21;;;;;;;420.17;253.23;;;;;;;;;;5082482;28;20202;-72
2022/05/14 15:01:59;;;;;;;415.17;237.20;;;;;;;;;;5079924;28;20545;-73
2022/05/14 15:04:35;;;;;;;406.50;227.63;;;;;;;;;;5095122;28;20557;-74
2022/05/14 15:07:05;;;;;;;405.97;229.67;;;;;;;;;;5076843;28;20950;-74
2022/05/14 15:09:36;;;;;;;408.50;225.02;;;;;;;;;;5074979;28;20703;-72
2022/05/14 15:12:05;;;;;;;400.80;205.47;;;;;;;;;;5079980;28;20202;-72
2022/05/14 15:14:33;;;;;;;410.55;238.73;;;;;;;;;;5075320;28;20436;-74
2022/05/14 15:17:06;;;;;;;410.90;227.95;;;;;;;;;;5074968;28;20259;-73